createdAt,value
2023-01-11T07:08:12.643Z,37.77
2023-01-11T10:21:38.719Z,75.85
2023-01-11T10:22:38.920Z,76.24
2023-01-11T10:23:38.689Z,76.02
2023-01-11T10:24:38.703Z,76.83
2023-01-11T10:25:38.678Z,77.02
2023-01-11T10:26:38.718Z,77.69
2023-01-11T10:27:38.997Z,73.87
2023-01-11T10:28:38.641Z,75.38
2023-01-11T10:29:38.734Z,74.93
2023-01-11T10:30:39.902Z,74.94
2023-01-11T10:31:38.991Z,75.24
2023-01-11T10:32:38.920Z,75.07
2023-01-11T10:33:38.606Z,74.08
2023-01-11T10:35:38.925Z,75.18
2023-01-11T10:37:38.564Z,70.78
2023-01-11T10:38:38.559Z,68.87
2023-01-11T10:41:38.668Z,69.19
2023-01-11T10:42:38.525Z,72.00
2023-01-11T10:43:39.352Z,70.47
2023-01-11T10:44:38.509Z,69.70
2023-01-11T10:45:39.011Z,82.92
2023-01-11T10:46:38.952Z,113.97
2023-01-11T10:47:38.500Z,127.05
2023-01-11T10:49:38.463Z,135.82
2023-01-11T10:50:38.551Z,142.33
2023-01-11T10:51:38.927Z,143.93
2023-01-11T10:52:38.438Z,150.13
2023-01-11T10:53:38.425Z,146.02
2023-01-11T10:54:38.417Z,147.01
2023-01-11T10:55:38.423Z,142.66
2023-01-11T10:56:42.887Z,140.23
2023-01-11T10:57:38.391Z,140.37
2023-01-11T10:58:38.385Z,140.52
2023-01-11T10:59:38.369Z,138.71
2023-01-11T11:00:38.478Z,130.21
2023-01-11T11:01:38.463Z,123.25
2023-01-11T11:02:38.384Z,121.43
2023-01-11T11:03:38.434Z,118.21
2023-01-11T11:04:38.326Z,117.50
2023-01-11T11:05:38.322Z,113.87
2023-01-11T11:06:38.314Z,112.25
2023-01-11T11:07:38.317Z,106.96
2023-01-11T11:08:38.472Z,105.17
2023-01-11T11:09:38.332Z,105.61
2023-01-11T11:10:38.632Z,103.92
2023-01-11T11:11:38.297Z,108.14
2023-01-11T11:12:38.258Z,113.30
2023-01-11T11:13:38.449Z,116.67
2023-01-11T11:14:38.244Z,119.89
2023-01-11T11:15:38.230Z,114.27
2023-01-11T11:16:38.376Z,115.57
2023-01-11T11:17:38.452Z,107.74
2023-01-11T11:18:38.243Z,114.82
2023-01-11T11:19:38.202Z,109.32
2023-01-11T11:20:38.211Z,110.27
2023-01-11T11:21:38.177Z,113.37
2023-01-11T11:22:38.443Z,120.68
2023-01-11T11:23:38.438Z,122.86
2023-01-11T11:24:38.439Z,119.07
2023-01-11T11:25:38.209Z,121.37
2023-01-11T11:26:38.251Z,119.11
2023-01-11T11:27:38.303Z,117.67
2023-01-11T11:28:38.117Z,119.22
2023-01-11T11:29:38.440Z,117.08
2023-01-11T11:30:38.468Z,113.92
2023-01-11T11:31:38.124Z,115.69
2023-01-11T11:32:38.080Z,115.78
2023-01-11T11:33:38.080Z,118.06
2023-01-11T11:36:38.048Z,117.15
2023-01-11T11:53:37.896Z,104.41
2023-01-11T11:54:37.888Z,105.47
2023-01-11T11:55:37.887Z,104.28
2023-01-11T11:56:37.875Z,98.54
2023-01-11T11:57:37.860Z,96.99
2023-01-11T11:58:37.854Z,96.33
2023-01-11T12:00:38.138Z,96.26
2023-01-11T12:01:37.824Z,96.58
2023-01-11T12:02:37.826Z,97.70
2023-01-11T12:03:37.810Z,86.84
2023-01-11T12:04:37.813Z,84.80
2023-01-11T12:05:37.797Z,93.19
2023-01-11T12:06:37.981Z,95.68
2023-01-11T12:07:49.881Z,104.79
2023-01-11T12:08:37.765Z,104.81
2023-01-11T12:09:37.757Z,103.11
2023-01-11T12:10:37.955Z,104.97
2023-01-11T12:11:37.760Z,101.35
2023-01-11T12:12:37.776Z,95.65
2023-01-11T12:13:37.736Z,94.74
2023-01-11T12:14:37.715Z,90.19
2023-01-11T12:15:37.960Z,92.58
2023-01-11T12:16:37.986Z,89.81
2023-01-11T12:17:37.689Z,85.52
2023-01-11T12:18:37.693Z,93.25
2023-01-11T12:19:37.676Z,69.78
2023-01-11T12:20:37.672Z,38.78
2023-01-11T12:21:37.666Z,50.48
2023-01-11T12:22:37.676Z,62.48
2023-01-11T12:23:37.641Z,57.31
2023-01-11T12:24:37.631Z,56.38
2023-01-11T12:25:37.621Z,57.33
2023-01-11T12:26:37.822Z,63.90
2023-01-11T12:27:37.621Z,63.77
2023-01-11T12:28:37.595Z,62.88
2023-01-11T12:29:37.581Z,54.99
2023-01-11T12:30:37.629Z,53.43
2023-01-11T12:31:37.564Z,53.14
2023-01-11T12:32:38.460Z,55.49
2023-01-11T12:33:37.550Z,57.58
2023-01-11T12:34:37.547Z,57.37
2023-01-11T12:35:37.528Z,58.20
2023-01-11T12:36:37.520Z,57.56
2023-01-11T12:37:37.514Z,55.91
2023-01-11T12:38:38.483Z,57.43
2023-01-11T12:39:37.493Z,56.91
2023-01-11T12:40:37.516Z,53.59
2023-01-11T12:41:37.474Z,54.48
2023-01-11T12:42:37.965Z,54.96
2023-01-11T12:43:37.471Z,54.19
2023-01-11T12:48:09.228Z,60.27
2023-01-11T12:51:37.481Z,62.31
2023-01-11T12:56:37.472Z,64.25
2023-01-11T12:58:37.477Z,55.80
2023-01-11T13:01:37.550Z,55.55
2023-01-11T13:08:37.501Z,51.22
2023-01-11T13:23:37.508Z,69.45
2023-01-11T13:26:37.559Z,72.65
2023-01-11T13:30:37.527Z,88.92
2023-01-11T13:32:37.765Z,80.98
2023-01-11T13:35:37.483Z,76.03
2023-01-11T14:04:37.500Z,63.59
2023-01-11T20:59:33.113Z,168.23
2023-01-11T21:00:33.102Z,173.32
2023-01-11T21:12:33.001Z,176.71
2023-01-11T21:13:33.006Z,174.44
2023-01-11T21:14:32.991Z,174.96
